createdAt,value
2019-01-29T00:00:34.612Z,35.68
2019-01-29T00:03:03.598Z,35.92
2019-01-29T00:05:32.416Z,35.03
2019-01-29T00:08:01.196Z,34.65
2019-01-29T00:10:29.989Z,34.80
2019-01-29T00:12:58.770Z,37.25
2019-01-29T00:15:27.589Z,36.68
2019-01-29T00:17:56.370Z,38.02
2019-01-29T00:20:25.184Z,37.17
2019-01-29T00:22:53.990Z,36.20
2019-01-29T00:25:22.778Z,37.70
2019-01-29T00:27:51.570Z,36.08
2019-01-29T00:30:20.363Z,33.13
2019-01-29T00:32:49.232Z,36.75
2019-01-29T00:35:18.131Z,35.17
2019-01-29T00:37:46.910Z,37.40
2019-01-29T00:40:16.434Z,36.80
2019-01-29T00:42:45.218Z,34.85
2019-01-29T00:45:15.946Z,38.17
2019-01-29T00:47:44.769Z,35.88
2019-01-29T00:50:15.196Z,38.42
2019-01-29T00:52:44.064Z,37.55
2019-01-29T00:55:16.909Z,35.90
2019-01-29T00:57:45.702Z,34.33
2019-01-29T01:00:23.530Z,33.90
2019-01-29T01:02:52.381Z,35.45
2019-01-29T01:05:21.282Z,40.00
2019-01-29T01:07:50.249Z,38.02
2019-01-29T01:10:20.642Z,35.92
2019-01-29T01:12:49.430Z,35.17
2019-01-29T01:15:18.200Z,34.63
2019-01-29T01:17:46.996Z,35.68
2019-01-29T01:20:17.337Z,35.88
2019-01-29T01:22:51.316Z,32.28
2019-01-29T01:25:16.835Z,33.30
2019-01-29T01:27:45.653Z,35.28
2019-01-29T01:30:17.353Z,36.13
2019-01-29T01:32:46.198Z,36.53
2019-01-29T01:35:15.036Z,32.73
2019-01-29T01:37:43.897Z,35.58
2019-01-29T01:40:18.409Z,34.40
2019-01-29T01:42:47.196Z,33.75
2019-01-29T01:45:16.012Z,34.53
2019-01-29T01:47:44.840Z,36.55
2019-01-29T01:50:14.665Z,33.83
2019-01-29T01:52:43.527Z,36.03
2019-01-29T01:55:15.271Z,36.50
2019-01-29T01:57:44.133Z,36.45
2019-01-29T02:00:18.373Z,33.70
2019-01-29T02:02:47.192Z,33.08
2019-01-29T02:05:16.045Z,35.33
2019-01-29T02:07:44.914Z,32.40
2019-01-29T02:10:17.148Z,33.80
2019-01-29T02:12:45.968Z,35.00
2019-01-29T02:15:14.773Z,29.75
2019-01-29T02:17:43.813Z,32.08
2019-01-29T02:20:14.934Z,31.45
2019-01-29T02:22:43.716Z,33.42
2019-01-29T02:25:12.598Z,32.58
2019-01-29T02:27:41.448Z,32.10
2019-01-29T02:30:15.842Z,33.67
2019-01-29T02:32:44.729Z,33.35
2019-01-29T02:35:13.514Z,31.42
2019-01-29T02:37:42.301Z,31.70
2019-01-29T02:40:19.512Z,32.05
2019-01-29T02:42:48.867Z,32.25
2019-01-29T02:45:18.023Z,31.25
2019-01-29T02:47:46.812Z,32.95
2019-01-29T02:50:16.969Z,30.75
2019-01-29T02:52:45.829Z,33.30
2019-01-29T02:55:14.981Z,32.05
2019-01-29T02:57:43.820Z,31.02
2019-01-29T03:00:24.362Z,31.48
2019-01-29T03:02:53.171Z,30.12
2019-01-29T03:05:21.975Z,32.23
2019-01-29T03:07:51.290Z,33.98
2019-01-29T03:10:22.224Z,29.70
2019-01-29T03:12:51.024Z,32.88
2019-01-29T03:15:22.706Z,30.57
2019-01-29T03:17:51.531Z,29.12
2019-01-29T03:20:20.387Z,33.10
2019-01-29T03:22:49.242Z,29.40
2019-01-29T03:25:18.048Z,30.92
2019-01-29T03:27:46.838Z,30.25
2019-01-29T03:30:23.022Z,31.48
2019-01-29T03:32:51.869Z,30.75
2019-01-29T03:35:20.726Z,31.02
2019-01-29T03:37:49.587Z,30.95
2019-01-29T03:40:26.418Z,30.85
2019-01-29T03:42:55.314Z,30.02
2019-01-29T03:45:24.158Z,30.60
2019-01-29T03:47:52.955Z,29.50
2019-01-29T03:50:22.951Z,27.00
2019-01-29T03:52:51.806Z,28.60
2019-01-29T03:55:20.656Z,28.52
2019-01-29T03:57:49.463Z,27.50
2019-01-29T04:00:26.311Z,27.93
2019-01-29T04:02:55.194Z,29.37
2019-01-29T04:05:23.971Z,28.02
2019-01-29T04:07:52.765Z,28.30
2019-01-29T04:10:21.548Z,29.32
2019-01-29T04:12:50.454Z,25.08
2019-01-29T04:15:21.239Z,27.35
2019-01-29T04:17:53.345Z,27.98
2019-01-29T04:20:22.132Z,27.55
2019-01-29T04:22:50.939Z,27.52
2019-01-29T04:25:19.731Z,26.75
2019-01-29T04:27:48.600Z,29.75
2019-01-29T04:30:19.711Z,28.25
2019-01-29T04:32:48.514Z,28.02
2019-01-29T04:35:17.369Z,26.95
2019-01-29T04:37:46.163Z,25.95
2019-01-29T04:40:17.683Z,26.42
2019-01-29T04:42:46.525Z,26.85
2019-01-29T04:45:16.811Z,25.82
2019-01-29T04:47:45.603Z,30.48
2019-01-29T04:50:16.642Z,28.38
2019-01-29T04:52:45.440Z,25.25
2019-01-29T04:55:16.130Z,26.25
2019-01-29T04:57:45.285Z,26.12
2019-01-29T05:00:25.368Z,26.45
2019-01-29T05:02:54.175Z,24.80
2019-01-29T05:05:22.962Z,24.82
2019-01-29T05:07:51.755Z,25.05
2019-01-29T05:10:21.529Z,28.23
2019-01-29T05:12:50.323Z,25.62
2019-01-29T05:15:20.060Z,26.42
2019-01-29T05:17:48.923Z,25.50
2019-01-29T05:20:19.648Z,25.77
2019-01-29T05:22:48.431Z,25.95
2019-01-29T05:25:17.235Z,24.67
2019-01-29T05:27:46.048Z,24.98
2019-01-29T05:30:20.373Z,23.20
2019-01-29T05:32:48.007Z,24.27
2019-01-29T05:35:16.836Z,22.98
2019-01-29T05:37:45.634Z,24.98
2019-01-29T05:40:20.227Z,26.10
2019-01-29T05:42:49.044Z,23.52
2019-01-29T05:45:19.676Z,22.87
2019-01-29T05:47:48.490Z,23.35
2019-01-29T05:50:17.807Z,24.40
2019-01-29T05:52:46.663Z,24.95
2019-01-29T05:55:16.386Z,23.70
2019-01-29T05:57:45.181Z,23.90
2019-01-29T06:00:19.604Z,25.52
2019-01-29T06:02:48.771Z,23.40
2019-01-29T06:05:18.098Z,24.05
2019-01-29T06:07:46.965Z,23.52
2019-01-29T06:10:17.403Z,26.93
2019-01-29T06:12:46.356Z,21.97
2019-01-29T06:15:18.110Z,24.92
2019-01-29T06:17:46.914Z,27.73
2019-01-29T06:20:18.714Z,26.12
2019-01-29T06:22:47.947Z,24.25
2019-01-29T06:25:16.853Z,24.57
2019-01-29T06:27:45.725Z,25.37
2019-01-29T06:30:17.286Z,24.55
2019-01-29T06:32:46.139Z,24.80
2019-01-29T06:35:16.806Z,23.38
2019-01-29T06:37:45.591Z,23.27
2019-01-29T06:40:23.500Z,26.77
2019-01-29T06:42:52.570Z,23.90
2019-01-29T06:45:22.864Z,26.48
2019-01-29T06:47:51.701Z,24.82
2019-01-29T06:50:23.063Z,25.72
2019-01-29T06:52:51.847Z,32.15
2019-01-29T06:55:22.315Z,68.78
2019-01-29T06:57:55.420Z,111.17
2019-01-29T07:00:24.577Z,102.97
2019-01-29T07:02:53.640Z,80.75
2019-01-29T07:05:22.431Z,73.52
2019-01-29T07:07:51.204Z,70.70
2019-01-29T07:10:25.177Z,61.88
2019-01-29T07:12:53.961Z,62.78
2019-01-29T07:15:42.718Z,59.45
2019-01-29T07:18:28.323Z,53.63
2019-01-29T07:20:57.138Z,50.28
2019-01-29T07:23:25.962Z,48.63
2019-01-29T07:25:54.816Z,41.48
2019-01-29T07:28:23.690Z,50.08
2019-01-29T07:30:52.507Z,39.27
2019-01-29T07:33:21.297Z,40.58
2019-01-29T07:35:50.272Z,41.37
2019-01-29T07:38:19.110Z,42.55
2019-01-29T07:40:47.905Z,45.45
2019-01-29T07:43:16.689Z,40.67
2019-01-29T07:45:45.481Z,40.30
2019-01-29T07:48:14.332Z,43.30
2019-01-29T07:50:43.161Z,43.40
2019-01-29T07:53:11.934Z,40.85
2019-01-29T07:55:40.760Z,41.00
2019-01-29T07:58:09.626Z,44.83
2019-01-29T08:00:38.437Z,38.48
2019-01-29T08:03:07.226Z,42.03
2019-01-29T08:05:36.013Z,41.40
2019-01-29T08:08:05.167Z,40.70
2019-01-29T08:10:34.062Z,42.13
2019-01-29T08:13:02.841Z,42.15
2019-01-29T08:15:31.639Z,44.38
2019-01-29T08:18:00.500Z,45.40
2019-01-29T08:20:29.300Z,44.50
2019-01-29T08:22:58.637Z,41.55
2019-01-29T08:25:27.606Z,45.38
2019-01-29T08:27:56.401Z,45.70
2019-01-29T08:30:25.328Z,42.05
2019-01-29T08:32:54.141Z,41.15
2019-01-29T08:35:23.014Z,40.83
2019-01-29T08:37:51.797Z,38.63
2019-01-29T08:40:20.578Z,42.55
2019-01-29T08:42:49.399Z,40.83
2019-01-29T08:45:19.217Z,40.85
2019-01-29T08:47:48.054Z,43.65
2019-01-29T08:50:23.115Z,39.05
2019-01-29T08:52:52.048Z,39.63
2019-01-29T08:55:21.307Z,40.48
2019-01-29T08:57:51.772Z,39.20
2019-01-29T09:00:29.742Z,35.43
2019-01-29T09:02:58.593Z,34.80
2019-01-29T09:05:27.391Z,34.15
2019-01-29T09:07:56.171Z,34.50
2019-01-29T09:10:24.959Z,34.83
2019-01-29T09:12:53.894Z,33.60
2019-01-29T09:15:22.758Z,33.10
2019-01-29T09:17:51.861Z,33.92
2019-01-29T09:20:21.945Z,34.55
2019-01-29T09:22:50.724Z,34.75
2019-01-29T09:25:22.415Z,32.93
2019-01-29T09:27:50.021Z,33.95
2019-01-29T09:30:20.176Z,35.17
2019-01-29T09:32:48.972Z,30.70
2019-01-29T09:35:17.773Z,32.67
2019-01-29T09:37:46.647Z,36.48
2019-01-29T09:40:18.702Z,32.28
2019-01-29T09:42:47.768Z,33.63
2019-01-29T09:45:18.396Z,32.23
2019-01-29T09:47:47.254Z,30.72
2019-01-29T09:50:21.817Z,29.77
2019-01-29T09:52:51.236Z,32.28
2019-01-29T09:55:28.934Z,37.70
2019-01-29T09:57:52.515Z,33.42
2019-01-29T10:00:30.273Z,31.00
2019-01-29T10:02:59.053Z,37.67
2019-01-29T10:05:27.999Z,38.30
2019-01-29T10:07:56.774Z,30.50
2019-01-29T10:10:25.562Z,31.17
2019-01-29T10:12:54.389Z,29.85
2019-01-29T10:15:31.627Z,40.73
2019-01-29T10:18:00.684Z,31.37
2019-01-29T10:20:29.916Z,29.57
2019-01-29T10:22:58.689Z,30.85
2019-01-29T10:25:27.470Z,37.05
2019-01-29T10:27:56.266Z,29.32
2019-01-29T10:30:27.190Z,28.80
2019-01-29T10:32:56.358Z,27.90
2019-01-29T10:35:27.394Z,30.60
2019-01-29T10:37:56.202Z,28.98
2019-01-29T10:40:26.761Z,27.35
2019-01-29T10:42:56.592Z,27.17
2019-01-29T10:45:27.406Z,30.85
2019-01-29T10:47:56.204Z,35.65
2019-01-29T10:50:26.927Z,41.98
2019-01-29T10:52:55.750Z,39.45
2019-01-29T10:55:24.567Z,38.35
2019-01-29T10:57:53.411Z,42.53
2019-01-29T11:00:28.120Z,45.52
2019-01-29T11:02:57.000Z,33.88
2019-01-29T11:05:25.785Z,38.70
2019-01-29T11:07:54.575Z,37.00
2019-01-29T11:10:23.572Z,35.85
2019-01-29T11:12:52.362Z,39.08
2019-01-29T11:15:31.891Z,32.28
2019-01-29T11:18:00.469Z,35.35
2019-01-29T11:20:29.946Z,34.00
2019-01-29T11:22:58.822Z,35.98
2019-01-29T11:25:29.435Z,34.18
2019-01-29T11:27:58.295Z,36.30
2019-01-29T11:30:30.043Z,34.63
2019-01-29T11:32:58.862Z,36.28
2019-01-29T11:35:27.663Z,35.85
2019-01-29T11:37:56.479Z,32.23
2019-01-29T11:40:28.132Z,37.63
2019-01-29T11:42:56.996Z,34.45
2019-01-29T11:45:37.148Z,33.63
2019-01-29T11:48:05.930Z,33.38
2019-01-29T11:50:34.715Z,33.63
2019-01-29T11:53:03.872Z,32.30
2019-01-29T11:55:32.840Z,30.37
2019-01-29T11:58:01.671Z,31.33
2019-01-29T12:00:37.247Z,32.48
2019-01-29T12:03:06.507Z,29.77
2019-01-29T12:05:35.291Z,27.58
2019-01-29T12:08:04.466Z,25.80
2019-01-29T12:10:33.256Z,29.55
2019-01-29T12:13:02.474Z,25.62
2019-01-29T12:15:31.610Z,22.62
2019-01-29T12:18:00.391Z,26.97
2019-01-29T12:20:29.257Z,25.85
2019-01-29T12:22:58.050Z,26.87
2019-01-29T12:25:26.841Z,25.97
2019-01-29T12:27:55.934Z,27.85
2019-01-29T12:30:27.618Z,26.68
2019-01-29T12:32:57.502Z,28.87
2019-01-29T12:35:26.324Z,29.37
2019-01-29T12:37:55.113Z,40.23
2019-01-29T12:40:24.065Z,41.33
2019-01-29T12:42:52.940Z,43.33
2019-01-29T12:45:21.722Z,44.95
2019-01-29T12:47:50.499Z,45.20
2019-01-29T12:50:22.041Z,47.93
2019-01-29T12:52:58.366Z,44.67
2019-01-29T12:55:27.184Z,46.20
2019-01-29T12:57:55.959Z,41.48
2019-01-29T13:00:26.390Z,37.48
2019-01-29T13:02:55.280Z,39.40
2019-01-29T13:05:24.134Z,41.88
2019-01-29T13:07:52.987Z,35.17
2019-01-29T13:10:23.838Z,40.08
2019-01-29T13:12:52.621Z,44.25
2019-01-29T13:15:24.868Z,37.45
2019-01-29T13:17:53.650Z,40.45
2019-01-29T13:20:22.437Z,44.13
2019-01-29T13:22:51.227Z,46.23
2019-01-29T13:25:20.000Z,42.03
2019-01-29T13:27:48.849Z,46.05
2019-01-29T13:30:29.609Z,40.55
2019-01-29T13:32:58.386Z,41.35
2019-01-29T13:35:32.251Z,44.45
2019-01-29T13:38:01.272Z,41.10
2019-01-29T13:40:30.609Z,43.33
2019-01-29T13:42:59.764Z,40.35
2019-01-29T13:45:28.632Z,38.15
2019-01-29T13:47:57.700Z,39.98
2019-01-29T13:50:32.675Z,37.08
2019-01-29T13:53:02.219Z,31.90
2019-01-29T13:55:31.028Z,29.63
2019-01-29T13:57:59.833Z,26.87
2019-01-29T14:00:33.872Z,27.00
2019-01-29T14:03:03.030Z,25.85
2019-01-29T14:05:31.880Z,25.68
2019-01-29T14:08:00.773Z,27.80
2019-01-29T14:10:29.572Z,25.10
2019-01-29T14:12:58.348Z,26.87
2019-01-29T14:15:37.918Z,27.35
2019-01-29T14:18:06.881Z,27.70
2019-01-29T14:20:35.738Z,22.17
2019-01-29T14:23:07.048Z,24.75
2019-01-29T14:25:35.843Z,24.92
2019-01-29T14:28:04.704Z,19.52
2019-01-29T14:30:33.503Z,19.55
2019-01-29T14:33:02.464Z,23.10
2019-01-29T14:35:31.256Z,21.00
2019-01-29T14:38:05.857Z,24.65
2019-01-29T14:40:35.188Z,17.67
2019-01-29T14:43:05.439Z,18.37
2019-01-29T14:45:34.255Z,17.30
2019-01-29T14:48:03.038Z,15.83
2019-01-29T14:50:31.872Z,17.90
2019-01-29T14:53:00.710Z,17.25
2019-01-29T14:55:29.584Z,16.70
2019-01-29T14:57:58.413Z,16.23
2019-01-29T15:00:31.922Z,15.00
2019-01-29T15:03:00.702Z,18.02
2019-01-29T15:05:29.503Z,16.67
2019-01-29T15:07:58.350Z,15.43
2019-01-29T15:10:31.412Z,14.00
2019-01-29T15:13:00.279Z,13.93
2019-01-29T15:15:35.632Z,16.90
2019-01-29T15:18:22.016Z,19.02
2019-01-29T15:20:50.801Z,15.18
2019-01-29T15:23:20.322Z,15.75
2019-01-29T15:25:49.237Z,16.30
2019-01-29T15:28:18.010Z,15.10
2019-01-29T15:30:46.790Z,14.80
2019-01-29T15:33:15.570Z,16.57
2019-01-29T15:35:44.345Z,16.15
2019-01-29T15:38:13.157Z,14.00
2019-01-29T15:40:41.950Z,17.73
2019-01-29T15:43:10.742Z,17.73
2019-01-29T15:45:39.678Z,21.97
2019-01-29T15:48:08.628Z,22.10
2019-01-29T15:50:37.466Z,14.38
2019-01-29T15:53:06.769Z,20.77
2019-01-29T15:55:35.606Z,14.55
2019-01-29T15:58:06.335Z,14.03
2019-01-29T16:00:37.428Z,16.05
2019-01-29T16:03:06.259Z,17.05
2019-01-29T16:05:40.026Z,16.77
2019-01-29T16:08:15.802Z,19.73
2019-01-29T16:10:46.035Z,16.67
2019-01-29T16:13:14.851Z,16.60
2019-01-29T16:15:43.703Z,16.75
2019-01-29T16:18:13.384Z,16.57
2019-01-29T16:20:42.493Z,14.98
2019-01-29T16:23:11.345Z,18.85
2019-01-29T16:25:40.213Z,21.62
2019-01-29T16:28:09.052Z,20.72
2019-01-29T16:30:39.230Z,15.60
2019-01-29T16:33:08.048Z,15.53
2019-01-29T16:35:40.165Z,16.23
2019-01-29T16:38:09.558Z,17.60
2019-01-29T16:40:40.870Z,12.03
2019-01-29T16:43:09.648Z,21.27
2019-01-29T16:45:38.862Z,16.70
2019-01-29T16:48:09.639Z,17.42
2019-01-29T16:50:38.417Z,17.32
2019-01-29T16:53:08.185Z,22.05
2019-01-29T16:55:37.038Z,21.68
2019-01-29T16:58:06.451Z,17.48
2019-01-29T17:00:37.032Z,23.60
2019-01-29T17:03:06.018Z,20.82
2019-01-29T17:05:34.860Z,17.70
2019-01-29T17:08:04.327Z,15.43
2019-01-29T17:10:33.826Z,18.82
2019-01-29T17:13:02.616Z,15.28
2019-01-29T17:15:33.149Z,16.00
2019-01-29T17:18:02.467Z,14.80
2019-01-29T17:20:42.722Z,14.40
2019-01-29T17:23:11.562Z,16.80
2019-01-29T17:25:40.383Z,14.00
2019-01-29T17:28:09.172Z,12.95
2019-01-29T17:30:42.634Z,13.32
2019-01-29T17:33:11.851Z,12.93
2019-01-29T17:35:41.012Z,14.38
2019-01-29T17:38:10.106Z,15.15
2019-01-29T17:40:39.398Z,13.55
2019-01-29T17:43:08.228Z,16.62
2019-01-29T17:45:51.433Z,15.60
2019-01-29T17:48:20.191Z,9.60
2019-01-29T17:50:48.969Z,13.70
2019-01-29T17:53:18.179Z,14.93
2019-01-29T17:55:47.049Z,11.35
2019-01-29T17:58:16.434Z,12.20
2019-01-29T18:00:49.562Z,12.68
2019-01-29T18:03:18.371Z,19.95
2019-01-29T18:05:47.146Z,17.90
2019-01-29T18:08:16.126Z,13.03
2019-01-29T18:10:45.010Z,17.40
2019-01-29T18:13:13.799Z,17.87
2019-01-29T18:15:42.607Z,12.30
2019-01-29T18:18:11.461Z,16.75
2019-01-29T18:20:40.505Z,16.40
2019-01-29T18:23:09.588Z,14.65
2019-01-29T18:25:38.369Z,13.25
2019-01-29T18:28:08.585Z,16.50
2019-01-29T18:30:37.715Z,23.10
2019-01-29T18:33:06.517Z,15.75
2019-01-29T18:35:35.437Z,13.48
2019-01-29T18:38:04.232Z,16.60
2019-01-29T18:40:42.502Z,13.88
2019-01-29T18:43:11.380Z,17.12
2019-01-29T18:45:40.316Z,19.55
2019-01-29T18:48:09.151Z,18.87
2019-01-29T18:50:37.926Z,13.78
2019-01-29T18:53:06.735Z,14.95
2019-01-29T18:55:35.502Z,11.93
2019-01-29T18:58:11.448Z,15.20
2019-01-29T19:00:34.934Z,13.15
2019-01-29T19:03:03.789Z,13.83
2019-01-29T19:05:32.595Z,15.53
2019-01-29T19:08:01.570Z,11.22
2019-01-29T19:10:30.345Z,14.47
2019-01-29T19:12:59.130Z,14.78
2019-01-29T19:15:28.015Z,12.80
2019-01-29T19:17:56.869Z,13.75
2019-01-29T19:20:26.751Z,15.05
2019-01-29T19:22:55.762Z,12.90
2019-01-29T19:25:24.556Z,12.88
2019-01-29T19:27:53.723Z,9.83
2019-01-29T19:30:33.189Z,13.65
2019-01-29T19:33:02.046Z,12.30
2019-01-29T19:35:30.922Z,16.62
2019-01-29T19:37:59.738Z,12.07
2019-01-29T19:40:28.510Z,13.15
2019-01-29T19:42:57.319Z,10.93
2019-01-29T19:45:31.395Z,9.98
2019-01-29T19:48:00.375Z,11.90
2019-01-29T19:50:31.814Z,10.15
2019-01-29T19:53:00.923Z,13.75
2019-01-29T19:55:29.984Z,14.20
2019-01-29T19:58:08.385Z,14.10
2019-01-29T20:00:38.279Z,9.68
2019-01-29T20:03:07.092Z,14.68
2019-01-29T20:05:35.961Z,14.78
2019-01-29T20:08:04.794Z,16.27
2019-01-29T20:10:33.726Z,11.78
2019-01-29T20:13:02.541Z,12.93
2019-01-29T20:15:31.317Z,13.40
2019-01-29T20:18:00.672Z,12.33
2019-01-29T20:20:38.219Z,11.03
2019-01-29T20:23:07.934Z,14.05
2019-01-29T20:25:37.707Z,13.62
2019-01-29T20:28:06.557Z,15.30
2019-01-29T20:30:39.411Z,10.43
2019-01-29T20:33:08.395Z,14.50
2019-01-29T20:35:37.195Z,13.78
2019-01-29T20:38:06.177Z,17.52
2019-01-29T20:40:35.014Z,16.45
2019-01-29T20:43:03.800Z,21.27
2019-01-29T20:45:32.715Z,21.85
2019-01-29T20:48:01.543Z,15.50
2019-01-29T20:50:37.293Z,15.35
2019-01-29T20:53:06.320Z,20.10
2019-01-29T20:55:35.142Z,19.10
2019-01-29T20:58:04.479Z,16.17
2019-01-29T21:00:39.269Z,21.55
2019-01-29T21:03:08.265Z,22.77
2019-01-29T21:05:37.138Z,23.10
2019-01-29T21:08:05.932Z,24.47
2019-01-29T21:10:34.805Z,22.25
2019-01-29T21:13:03.610Z,21.87
2019-01-29T21:15:38.615Z,22.32
2019-01-29T21:18:03.032Z,25.82
2019-01-29T21:20:33.052Z,25.17
2019-01-29T21:23:01.939Z,26.77
2019-01-29T21:25:30.815Z,30.35
2019-01-29T21:27:59.797Z,28.67
2019-01-29T21:30:36.269Z,34.95
2019-01-29T21:33:05.113Z,37.95
2019-01-29T21:35:33.903Z,35.65
2019-01-29T21:38:02.693Z,35.20
2019-01-29T21:40:31.565Z,30.10
2019-01-29T21:43:00.346Z,42.40
2019-01-29T21:45:29.213Z,39.38
2019-01-29T21:47:59.733Z,44.23
2019-01-29T21:50:33.743Z,40.75
2019-01-29T21:53:02.555Z,38.75
2019-01-29T21:55:31.422Z,40.58
2019-01-29T21:58:00.309Z,38.88
2019-01-29T22:00:37.592Z,36.03
2019-01-29T22:03:07.202Z,39.35
2019-01-29T22:05:37.558Z,36.48
2019-01-29T22:08:07.084Z,35.38
2019-01-29T22:10:38.800Z,33.23
2019-01-29T22:13:08.403Z,33.70
2019-01-29T22:15:37.199Z,36.73
2019-01-29T22:21:15.516Z,28.83
2019-01-29T22:23:44.478Z,32.23
2019-01-29T22:26:13.309Z,33.53
2019-01-29T22:28:42.085Z,36.25
2019-01-29T22:31:10.885Z,36.68
2019-01-29T22:33:39.670Z,38.80
2019-01-29T22:36:08.486Z,39.73
2019-01-29T22:38:37.267Z,31.48
2019-01-29T22:41:06.061Z,31.15
2019-01-29T22:43:34.851Z,32.78
2019-01-29T22:46:03.662Z,32.65
2019-01-29T22:48:32.536Z,38.35
2019-01-29T22:51:01.334Z,30.37
2019-01-29T22:53:30.355Z,35.58
2019-01-29T22:55:59.144Z,31.12
2019-01-29T22:58:27.941Z,33.42
2019-01-29T23:01:09.102Z,34.48
2019-01-29T23:03:41.186Z,28.62
2019-01-29T23:06:34.593Z,32.75
2019-01-29T23:09:05.400Z,34.20
2019-01-29T23:11:34.186Z,30.52
2019-01-29T23:14:02.993Z,26.65
2019-01-29T23:16:31.786Z,24.27
2019-01-29T23:19:00.572Z,28.77
2019-01-29T23:21:29.481Z,26.42
2019-01-29T23:23:58.262Z,26.85
2019-01-29T23:26:27.034Z,24.18
2019-01-29T23:28:55.818Z,24.65
2019-01-29T23:31:24.656Z,23.40
2019-01-29T23:33:53.489Z,24.35
2019-01-29T23:36:22.279Z,22.32
2019-01-29T23:38:51.139Z,22.22
2019-01-29T23:41:19.922Z,22.75
2019-01-29T23:43:48.701Z,22.37
2019-01-29T23:46:17.477Z,22.32
2019-01-29T23:48:46.276Z,20.02
2019-01-29T23:51:15.061Z,21.70
2019-01-29T23:53:43.932Z,18.32
2019-01-29T23:56:12.732Z,18.65
2019-01-29T23:58:41.591Z,20.60
